Providence, RI

2:07 AM EST on March 06, 2015 (GMT -0500)
Fruit Hill | Change Station
CLOSE
Current Station
Personal Weather Station
Location: North Providence, RI
Elevation: 240 ft
Nearby Weather Stations

Elev 240 ft 41.85 °N, 71.46 °W | Updated 28 seconds ago

Partly Cloudy
Partly Cloudy
16.7 °F
Feels Like 9 °F
N
4.7
Wind Variable Wind from WNW
Gusts 6.9 mph

Today
High -- | Low -- °F
--% Chance of Precip.
Yesterday
High -- | Low -- °F
Precip. -- in
6:13 AM 5:41 PM
Full, 100% visible
Pressure 30.32 in
Visibility 10.0 miles
Clouds Clear
Windchill 9 °F
Dew Point 7 °F
Humidity 64%
Rainfall in
Snow Depth Not available.
UV 0 out of 12
Pollen .50 out of 12
Air Quality Not available.
Flu Activity Not available.
METAR KSFZ 060655Z 33013G17KT 10SM CLR M10/M20 A3032 RMK AO1

More Conditions Fewer Conditions

Pressure 30.32 in
Visibility 10.0 miles
Clouds Clear
Windchill 9 °F
Dew Point 7 °F
Humidity 64%
Rainfall in
Snow Depth Not available.
UV 0 out of 12
Pollen .50 out of 12
Air Quality Not available.
Flu Activity Not available.
METAR KSFZ 060655Z 33013G17KT 10SM CLR M10/M20 A3032 RMK AO1

More Conditions Fewer Conditions

10-Day Weather Forecast

Almanac

Astronomy

Mar. 06, 2015 Rise Set
Actual Time
Civil Twilight
Nautical Twilight
Astronomical Twilight
Moon
Length of Visible Light
Length of Day
Tomorrow will be .
, % of the Moon is Illuminated

Today's Extremes

State Highs State Lows

Community

WunderPhotos

Upload Photos

1,803,199 photos uploaded!

WunderBlogs® & News

Nearby

Air Quality

  Air Quality AQ Index Pollutant
Not available.

Snow Depth

Station Depth Elevation

Earthquake Activity

City Distance Mag. Time & Date
Minimum magnitude displayed is 2.5.

Coastal Water Temperatures

Place Temperature

Nearby Weather Stations